Terminal Aerodrome Forecast
Issued by NWS Flagstaff, AZ

Home | Current Version | Previous Version | Text Only | Print | Product List | Glossary On
Versions: 1 2 3 4 5 6 7 8 9 10 11 12 13 14 15 16 17 18 19 20 21 22 23 24 25 26 27 28 29 30 31
467
FTUS45 KFGZ 240217 AAA
TAFFLG
TAF AMD
KFLG 240217Z 2402/2424 24014G22KT 1SM -SN BR BKN010 OVC015
      TEMPO 2402/2405 1/2SM SN FZFG VV002
     FM240500 23012G19KT 1SM -SHSN BR OVC008
     FM241200 23009G17KT 1 1/2SM BR OVC010
     FM242100 24011G18KT 6SM BR SCT020 OVC040 PROB30 2421/2424 2SM
      -SHSN OVC015=

USA.gov is the U.S. government's official web portal to all federal, state and local government web resources and services.